Terminal Aerodrome Forecast
Issued by NWS Goodland, KS

Home | Current Version | Previous Version | Text Only | Print | Product List | Glossary On
Versions: 1 2 3 4 5 6 7 8 9 10 11 12 13 14 15 16 17 18 19 20 21 22
000
FTUS43 KGLD 232324
TAFGLD
TAF
KGLD 232324Z 2400/2424 04008KT P6SM FEW250
     FM240300 08007KT P6SM SCT250
     FM240600 05007KT P6SM BKN200
     FM240800 02007KT P6SM BKN200
     FM241300 05009KT P6SM BKN150
     FM241500 06013G19KT P6SM SCT200=

USA.gov is the U.S. government's official web portal to all federal, state and local government web resources and services.